<?xml version="1.0" encoding="UTF-8" standalone="no" ?>
<gpx xmlns="http://www.topografix.com/GPX/1/1" xmlns:xsi="http://www.w3.org/2001/XMLSchema-instance" xsi:schemaLocation="http://www.topografix.com/GPX/1/1 http://www.topografix.com/GPX/1/1/gpx.xsd" version="1.1" creator="VisuGPX - https://www.visugpx.com">
  <metadata>
    <name>Source de l'Aubette de Magny</name>
    <desc><![CDATA[Source de l'Aubette de Magny.
Nucourt, Magny en Vexin.]]></desc>
  </metadata>
  <trk>
    <name><![CDATA[8005112-Source de l'Aubette de Magny]]></name>
    <trkseg>
      <trkpt lat="49.15988" lon="1.85331">
        <ele>115</ele>
        <time>2018-04-07T19:56:33Z</time>
      </trkpt>
      <trkpt lat="49.15954" lon="1.85273">
        <ele>113</ele>
        <time>2018-04-07T19:57:33Z</time>
      </trkpt>
      <trkpt lat="49.15883" lon="1.85361">
        <ele>116</ele>
        <time>2018-04-07T19:58:33Z</time>
      </trkpt>
      <trkpt lat="49.15818" lon="1.85441">
        <ele>118</ele>
        <time>2018-04-07T19:59:33Z</time>
      </trkpt>
      <trkpt lat="49.15717" lon="1.85514">
        <ele>120</ele>
        <time>2018-04-07T20:00:33Z</time>
      </trkpt>
      <trkpt lat="49.1563" lon="1.85573">
        <ele>122</ele>
        <time>2018-04-07T20:01:33Z</time>
      </trkpt>
      <trkpt lat="49.15601" lon="1.85582">
        <ele>123</ele>
        <time>2018-04-07T20:02:33Z</time>
      </trkpt>
      <trkpt lat="49.1551" lon="1.85735">
        <ele>122</ele>
        <time>2018-04-07T20:03:33Z</time>
      </trkpt>
      <trkpt lat="49.15159" lon="1.86123">
        <ele>115</ele>
        <time>2018-04-07T20:04:33Z</time>
      </trkpt>
      <trkpt lat="49.15006" lon="1.86286">
        <ele>117</ele>
        <time>2018-04-07T20:05:33Z</time>
      </trkpt>
      <trkpt lat="49.1478" lon="1.86555">
        <ele>118</ele>
        <time>2018-04-07T20:06:33Z</time>
      </trkpt>
      <trkpt lat="49.14439" lon="1.8686">
        <ele>116</ele>
        <time>2018-04-07T20:07:33Z</time>
      </trkpt>
      <trkpt lat="49.14278" lon="1.87227">
        <ele>111</ele>
        <time>2018-04-07T20:08:33Z</time>
      </trkpt>
      <trkpt lat="49.13968" lon="1.86564">
        <ele>119</ele>
        <time>2018-04-07T20:09:33Z</time>
      </trkpt>
      <trkpt lat="49.13747" lon="1.86229">
        <ele>120</ele>
        <time>2018-04-07T20:10:33Z</time>
      </trkpt>
      <trkpt lat="49.13478" lon="1.85874">
        <ele>123</ele>
        <time>2018-04-07T20:11:33Z</time>
      </trkpt>
      <trkpt lat="49.13297" lon="1.85692">
        <ele>131</ele>
        <time>2018-04-07T20:12:33Z</time>
      </trkpt>
      <trkpt lat="49.13247" lon="1.85716">
        <ele>134</ele>
        <time>2018-04-07T20:13:33Z</time>
      </trkpt>
      <trkpt lat="49.13191" lon="1.85695">
        <ele>136</ele>
        <time>2018-04-07T20:14:33Z</time>
      </trkpt>
      <trkpt lat="49.1321" lon="1.85627">
        <ele>134</ele>
        <time>2018-04-07T20:15:33Z</time>
      </trkpt>
      <trkpt lat="49.13434" lon="1.85081">
        <ele>133</ele>
        <time>2018-04-07T20:16:33Z</time>
      </trkpt>
      <trkpt lat="49.13492" lon="1.8491">
        <ele>131</ele>
        <time>2018-04-07T20:17:33Z</time>
      </trkpt>
      <trkpt lat="49.13684" lon="1.84511">
        <ele>138</ele>
        <time>2018-04-07T20:18:33Z</time>
      </trkpt>
      <trkpt lat="49.13886" lon="1.84003">
        <ele>138</ele>
        <time>2018-04-07T20:19:33Z</time>
      </trkpt>
      <trkpt lat="49.1426" lon="1.83127">
        <ele>138</ele>
        <time>2018-04-07T20:20:33Z</time>
      </trkpt>
      <trkpt lat="49.14224" lon="1.83099">
        <ele>139</ele>
        <time>2018-04-07T20:21:33Z</time>
      </trkpt>
      <trkpt lat="49.14512" lon="1.82414">
        <ele>132</ele>
        <time>2018-04-07T20:22:33Z</time>
      </trkpt>
      <trkpt lat="49.14537" lon="1.82433">
        <ele>131</ele>
        <time>2018-04-07T20:23:33Z</time>
      </trkpt>
      <trkpt lat="49.14595" lon="1.82305">
        <ele>130</ele>
        <time>2018-04-07T20:24:33Z</time>
      </trkpt>
      <trkpt lat="49.14696" lon="1.82088">
        <ele>131</ele>
        <time>2018-04-07T20:25:33Z</time>
      </trkpt>
      <trkpt lat="49.14733" lon="1.82019">
        <ele>129</ele>
        <time>2018-04-07T20:26:33Z</time>
      </trkpt>
      <trkpt lat="49.1479" lon="1.8188">
        <ele>129</ele>
        <time>2018-04-07T20:27:33Z</time>
      </trkpt>
      <trkpt lat="49.1485" lon="1.81753">
        <ele>122</ele>
        <time>2018-04-07T20:28:33Z</time>
      </trkpt>
      <trkpt lat="49.1486" lon="1.8162">
        <ele>114</ele>
        <time>2018-04-07T20:29:33Z</time>
      </trkpt>
      <trkpt lat="49.14923" lon="1.81526">
        <ele>105</ele>
        <time>2018-04-07T20:30:33Z</time>
      </trkpt>
      <trkpt lat="49.15194" lon="1.80888">
        <ele>100</ele>
        <time>2018-04-07T20:31:33Z</time>
      </trkpt>
      <trkpt lat="49.15241" lon="1.80775">
        <ele>98</ele>
        <time>2018-04-07T20:32:33Z</time>
      </trkpt>
      <trkpt lat="49.15239" lon="1.80648">
        <ele>100</ele>
        <time>2018-04-07T20:33:33Z</time>
      </trkpt>
      <trkpt lat="49.15279" lon="1.80426">
        <ele>95</ele>
        <time>2018-04-07T20:34:33Z</time>
      </trkpt>
      <trkpt lat="49.15419" lon="1.8053">
        <ele>94</ele>
        <time>2018-04-07T20:35:33Z</time>
      </trkpt>
      <trkpt lat="49.15583" lon="1.80468">
        <ele>98</ele>
        <time>2018-04-07T20:36:33Z</time>
      </trkpt>
      <trkpt lat="49.15695" lon="1.80341">
        <ele>88</ele>
        <time>2018-04-07T20:37:33Z</time>
      </trkpt>
      <trkpt lat="49.15899" lon="1.80885">
        <ele>91</ele>
        <time>2018-04-07T20:38:33Z</time>
      </trkpt>
      <trkpt lat="49.15921" lon="1.81076">
        <ele>93</ele>
        <time>2018-04-07T20:39:33Z</time>
      </trkpt>
      <trkpt lat="49.15944" lon="1.81303">
        <ele>94</ele>
        <time>2018-04-07T20:40:33Z</time>
      </trkpt>
      <trkpt lat="49.1606" lon="1.81564">
        <ele>97</ele>
        <time>2018-04-07T20:41:33Z</time>
      </trkpt>
      <trkpt lat="49.16143" lon="1.81813">
        <ele>96</ele>
        <time>2018-04-07T20:42:33Z</time>
      </trkpt>
      <trkpt lat="49.16129" lon="1.82064">
        <ele>98</ele>
        <time>2018-04-07T20:43:33Z</time>
      </trkpt>
      <trkpt lat="49.16189" lon="1.8233">
        <ele>96</ele>
        <time>2018-04-07T20:44:33Z</time>
      </trkpt>
      <trkpt lat="49.16174" lon="1.82586">
        <ele>94</ele>
        <time>2018-04-07T20:45:33Z</time>
      </trkpt>
      <trkpt lat="49.16215" lon="1.82863">
        <ele>95</ele>
        <time>2018-04-07T20:46:33Z</time>
      </trkpt>
      <trkpt lat="49.16213" lon="1.83002">
        <ele>97</ele>
        <time>2018-04-07T20:47:33Z</time>
      </trkpt>
      <trkpt lat="49.16134" lon="1.83081">
        <ele>98</ele>
        <time>2018-04-07T20:48:33Z</time>
      </trkpt>
      <trkpt lat="49.16153" lon="1.83225">
        <ele>93</ele>
        <time>2018-04-07T20:49:33Z</time>
      </trkpt>
      <trkpt lat="49.16202" lon="1.83477">
        <ele>93</ele>
        <time>2018-04-07T20:50:33Z</time>
      </trkpt>
      <trkpt lat="49.163" lon="1.8339">
        <ele>94</ele>
        <time>2018-04-07T20:51:33Z</time>
      </trkpt>
      <trkpt lat="49.1632" lon="1.83322">
        <ele>97</ele>
        <time>2018-04-07T20:52:33Z</time>
      </trkpt>
      <trkpt lat="49.16424" lon="1.83373">
        <ele>102</ele>
        <time>2018-04-07T20:53:33Z</time>
      </trkpt>
      <trkpt lat="49.16543" lon="1.83466">
        <ele>106</ele>
        <time>2018-04-07T20:54:33Z</time>
      </trkpt>
      <trkpt lat="49.16617" lon="1.83545">
        <ele>108</ele>
        <time>2018-04-07T20:55:33Z</time>
      </trkpt>
      <trkpt lat="49.16729" lon="1.83543">
        <ele>106</ele>
        <time>2018-04-07T20:56:33Z</time>
      </trkpt>
      <trkpt lat="49.16857" lon="1.83596">
        <ele>107</ele>
        <time>2018-04-07T20:57:33Z</time>
      </trkpt>
      <trkpt lat="49.16999" lon="1.83607">
        <ele>102</ele>
        <time>2018-04-07T20:58:33Z</time>
      </trkpt>
      <trkpt lat="49.17112" lon="1.83697">
        <ele>104</ele>
        <time>2018-04-07T20:59:33Z</time>
      </trkpt>
      <trkpt lat="49.1719" lon="1.83772">
        <ele>104</ele>
        <time>2018-04-07T21:00:33Z</time>
      </trkpt>
      <trkpt lat="49.17293" lon="1.83775">
        <ele>102</ele>
        <time>2018-04-07T21:01:33Z</time>
      </trkpt>
      <trkpt lat="49.17313" lon="1.8368">
        <ele>104</ele>
        <time>2018-04-07T21:02:33Z</time>
      </trkpt>
      <trkpt lat="49.17338" lon="1.83607">
        <ele>108</ele>
        <time>2018-04-07T21:03:33Z</time>
      </trkpt>
      <trkpt lat="49.17345" lon="1.83418">
        <ele>116</ele>
        <time>2018-04-07T21:04:33Z</time>
      </trkpt>
      <trkpt lat="49.17421" lon="1.83129">
        <ele>122</ele>
        <time>2018-04-07T21:05:33Z</time>
      </trkpt>
      <trkpt lat="49.17512" lon="1.82895">
        <ele>125</ele>
        <time>2018-04-07T21:06:33Z</time>
      </trkpt>
      <trkpt lat="49.17599" lon="1.8274">
        <ele>126</ele>
        <time>2018-04-07T21:07:33Z</time>
      </trkpt>
      <trkpt lat="49.17713" lon="1.82406">
        <ele>129</ele>
        <time>2018-04-07T21:08:33Z</time>
      </trkpt>
      <trkpt lat="49.17805" lon="1.82219">
        <ele>126</ele>
        <time>2018-04-07T21:09:33Z</time>
      </trkpt>
      <trkpt lat="49.17899" lon="1.82457">
        <ele>132</ele>
        <time>2018-04-07T21:10:33Z</time>
      </trkpt>
      <trkpt lat="49.1795" lon="1.82562">
        <ele>134</ele>
        <time>2018-04-07T21:11:33Z</time>
      </trkpt>
      <trkpt lat="49.18275" lon="1.82871">
        <ele>124</ele>
        <time>2018-04-07T21:12:33Z</time>
      </trkpt>
      <trkpt lat="49.1847" lon="1.82987">
        <ele>123</ele>
        <time>2018-04-07T21:13:33Z</time>
      </trkpt>
      <trkpt lat="49.1862" lon="1.83041">
        <ele>131</ele>
        <time>2018-04-07T21:14:33Z</time>
      </trkpt>
      <trkpt lat="49.18639" lon="1.83013">
        <ele>131</ele>
        <time>2018-04-07T21:15:33Z</time>
      </trkpt>
      <trkpt lat="49.18766" lon="1.83116">
        <ele>145</ele>
        <time>2018-04-07T21:16:33Z</time>
      </trkpt>
      <trkpt lat="49.18747" lon="1.83174">
        <ele>144</ele>
        <time>2018-04-07T21:17:33Z</time>
      </trkpt>
      <trkpt lat="49.18871" lon="1.83313">
        <ele>161</ele>
        <time>2018-04-07T21:18:33Z</time>
      </trkpt>
      <trkpt lat="49.18877" lon="1.83388">
        <ele>167</ele>
        <time>2018-04-07T21:19:33Z</time>
      </trkpt>
      <trkpt lat="49.18918" lon="1.83442">
        <ele>178</ele>
        <time>2018-04-07T21:20:33Z</time>
      </trkpt>
      <trkpt lat="49.18916" lon="1.83646">
        <ele>176</ele>
        <time>2018-04-07T21:21:33Z</time>
      </trkpt>
      <trkpt lat="49.18953" lon="1.83725">
        <ele>180</ele>
        <time>2018-04-07T21:22:33Z</time>
      </trkpt>
      <trkpt lat="49.18972" lon="1.83858">
        <ele>181</ele>
        <time>2018-04-07T21:23:33Z</time>
      </trkpt>
      <trkpt lat="49.19002" lon="1.83938">
        <ele>182</ele>
        <time>2018-04-07T21:24:33Z</time>
      </trkpt>
      <trkpt lat="49.19027" lon="1.83976">
        <ele>184</ele>
        <time>2018-04-07T21:25:33Z</time>
      </trkpt>
      <trkpt lat="49.1904" lon="1.8403">
        <ele>182</ele>
        <time>2018-04-07T21:26:33Z</time>
      </trkpt>
      <trkpt lat="49.1908" lon="1.84049">
        <ele>185</ele>
        <time>2018-04-07T21:27:33Z</time>
      </trkpt>
      <trkpt lat="49.19092" lon="1.84152">
        <ele>182</ele>
        <time>2018-04-07T21:28:33Z</time>
      </trkpt>
      <trkpt lat="49.19127" lon="1.84208">
        <ele>184</ele>
        <time>2018-04-07T21:29:33Z</time>
      </trkpt>
      <trkpt lat="49.19174" lon="1.84324">
        <ele>186</ele>
        <time>2018-04-07T21:30:33Z</time>
      </trkpt>
      <trkpt lat="49.19222" lon="1.84384">
        <ele>185</ele>
        <time>2018-04-07T21:31:33Z</time>
      </trkpt>
      <trkpt lat="49.19157" lon="1.84725">
        <ele>164</ele>
        <time>2018-04-07T21:32:33Z</time>
      </trkpt>
      <trkpt lat="49.19099" lon="1.84946">
        <ele>156</ele>
        <time>2018-04-07T21:33:33Z</time>
      </trkpt>
      <trkpt lat="49.18944" lon="1.8512">
        <ele>145</ele>
        <time>2018-04-07T21:34:33Z</time>
      </trkpt>
      <trkpt lat="49.18782" lon="1.85272">
        <ele>138</ele>
        <time>2018-04-07T21:35:33Z</time>
      </trkpt>
      <trkpt lat="49.18637" lon="1.85407">
        <ele>139</ele>
        <time>2018-04-07T21:36:33Z</time>
      </trkpt>
      <trkpt lat="49.18587" lon="1.85468">
        <ele>141</ele>
        <time>2018-04-07T21:37:33Z</time>
      </trkpt>
      <trkpt lat="49.18517" lon="1.85562">
        <ele>140</ele>
        <time>2018-04-07T21:38:33Z</time>
      </trkpt>
      <trkpt lat="49.1843" lon="1.85689">
        <ele>142</ele>
        <time>2018-04-07T21:39:33Z</time>
      </trkpt>
      <trkpt lat="49.18348" lon="1.85712">
        <ele>144</ele>
        <time>2018-04-07T21:40:33Z</time>
      </trkpt>
      <trkpt lat="49.18075" lon="1.85828">
        <ele>138</ele>
        <time>2018-04-07T21:41:33Z</time>
      </trkpt>
      <trkpt lat="49.18048" lon="1.85822">
        <ele>137</ele>
        <time>2018-04-07T21:42:33Z</time>
      </trkpt>
      <trkpt lat="49.17968" lon="1.8574">
        <ele>134</ele>
        <time>2018-04-07T21:43:33Z</time>
      </trkpt>
      <trkpt lat="49.17564" lon="1.85326">
        <ele>124</ele>
        <time>2018-04-07T21:44:33Z</time>
      </trkpt>
      <trkpt lat="49.17366" lon="1.8515">
        <ele>120</ele>
        <time>2018-04-07T21:45:33Z</time>
      </trkpt>
      <trkpt lat="49.17254" lon="1.84944">
        <ele>120</ele>
        <time>2018-04-07T21:46:33Z</time>
      </trkpt>
      <trkpt lat="49.17173" lon="1.84732">
        <ele>120</ele>
        <time>2018-04-07T21:47:33Z</time>
      </trkpt>
      <trkpt lat="49.17166" lon="1.84659">
        <ele>120</ele>
        <time>2018-04-07T21:48:33Z</time>
      </trkpt>
      <trkpt lat="49.17177" lon="1.84519">
        <ele>122</ele>
        <time>2018-04-07T21:49:33Z</time>
      </trkpt>
      <trkpt lat="49.17119" lon="1.84345">
        <ele>120</ele>
        <time>2018-04-07T21:50:33Z</time>
      </trkpt>
      <trkpt lat="49.1707" lon="1.84362">
        <ele>125</ele>
        <time>2018-04-07T21:51:33Z</time>
      </trkpt>
      <trkpt lat="49.16944" lon="1.84206">
        <ele>125</ele>
        <time>2018-04-07T21:52:33Z</time>
      </trkpt>
      <trkpt lat="49.16833" lon="1.84056">
        <ele>126</ele>
        <time>2018-04-07T21:53:33Z</time>
      </trkpt>
      <trkpt lat="49.16735" lon="1.83905">
        <ele>126</ele>
        <time>2018-04-07T21:54:33Z</time>
      </trkpt>
      <trkpt lat="49.16687" lon="1.83884">
        <ele>125</ele>
        <time>2018-04-07T21:55:33Z</time>
      </trkpt>
      <trkpt lat="49.16446" lon="1.83639">
        <ele>111</ele>
        <time>2018-04-07T21:56:33Z</time>
      </trkpt>
      <trkpt lat="49.16341" lon="1.83405">
        <ele>98</ele>
        <time>2018-04-07T21:57:33Z</time>
      </trkpt>
      <trkpt lat="49.16314" lon="1.83345">
        <ele>96</ele>
        <time>2018-04-07T21:58:33Z</time>
      </trkpt>
      <trkpt lat="49.16302" lon="1.83339">
        <ele>95</ele>
        <time>2018-04-07T21:59:33Z</time>
      </trkpt>
      <trkpt lat="49.16297" lon="1.83388">
        <ele>94</ele>
        <time>2018-04-07T22:00:33Z</time>
      </trkpt>
      <trkpt lat="49.16204" lon="1.83473">
        <ele>93</ele>
        <time>2018-04-07T22:01:33Z</time>
      </trkpt>
      <trkpt lat="49.16217" lon="1.83584">
        <ele>93</ele>
        <time>2018-04-07T22:02:33Z</time>
      </trkpt>
      <trkpt lat="49.16287" lon="1.83766">
        <ele>95</ele>
        <time>2018-04-07T22:03:33Z</time>
      </trkpt>
      <trkpt lat="49.16318" lon="1.83944">
        <ele>95</ele>
        <time>2018-04-07T22:04:33Z</time>
      </trkpt>
      <trkpt lat="49.16324" lon="1.84167">
        <ele>98</ele>
        <time>2018-04-07T22:05:33Z</time>
      </trkpt>
      <trkpt lat="49.16341" lon="1.84281">
        <ele>101</ele>
        <time>2018-04-07T22:06:33Z</time>
      </trkpt>
      <trkpt lat="49.16241" lon="1.84382">
        <ele>109</ele>
        <time>2018-04-07T22:07:33Z</time>
      </trkpt>
      <trkpt lat="49.16191" lon="1.84502">
        <ele>113</ele>
        <time>2018-04-07T22:08:33Z</time>
      </trkpt>
      <trkpt lat="49.16202" lon="1.84766">
        <ele>113</ele>
        <time>2018-04-07T22:09:33Z</time>
      </trkpt>
      <trkpt lat="49.16172" lon="1.85048">
        <ele>110</ele>
        <time>2018-04-07T22:10:33Z</time>
      </trkpt>
      <trkpt lat="49.16055" lon="1.85212">
        <ele>112</ele>
        <time>2018-04-07T22:11:33Z</time>
      </trkpt>
      <trkpt lat="49.15951" lon="1.85272">
        <ele>113</ele>
        <time>2018-04-07T22:12:33Z</time>
      </trkpt>
      <trkpt lat="49.1599" lon="1.85329">
        <ele>115</ele>
        <time>2018-04-07T22:13:33Z</time>
      </trkpt>
    </trkseg>
  </trk>
</gpx>